Time;durP1;ratioP1;P1;durP2;ratioP2;P2;SDS_P1;SDS_P2;PMS_P1;PMS_P2;Temp;Humidity;BMP_temperature;BMP_pressure;BME280_temperature;BME280_humidity;BME280_pressure;Samples;Min_cycle;Max_cycle;Signal;HPM_P1;HPM_P2
2022/10/29 00:01:52;;;;;;;10.27;5.68;;;;;;;;;;4913667;29;20028;-77
2022/10/29 00:04:17;;;;;;;11.65;5.32;;;;;;;;;;4915276;29;20020;-77
2022/10/29 00:06:42;;;;;;;10.05;5.20;;;;;;;;;;4930626;29;20114;-77
2022/10/29 00:09:09;;;;;;;12.20;5.43;;;;;;;;;;4916008;29;20027;-77
2022/10/29 00:11:34;;;;;;;10.93;5.15;;;;;;;;;;4928094;29;20508;-77
2022/10/29 00:14:00;;;;;;;12.63;5.18;;;;;;;;;;4930437;29;20110;-77
2022/10/29 00:16:29;;;;;;;10.23;5.25;;;;;;;;;;4916186;29;20106;-77
2022/10/29 00:18:55;;;;;;;13.15;5.43;;;;;;;;;;4912448;29;20035;-77
2022/10/29 00:21:23;;;;;;;10.35;4.80;;;;;;;;;;4926211;29;20144;-77
2022/10/29 00:23:49;;;;;;;11.82;5.30;;;;;;;;;;4919699;29;20897;-77
2022/10/29 00:26:16;;;;;;;13.02;5.40;;;;;;;;;;4927529;29;20036;-77
2022/10/29 00:28:42;;;;;;;9.35;5.00;;;;;;;;;;4912794;29;20567;-77
2022/10/29 00:31:12;;;;;;;9.88;5.20;;;;;;;;;;4908021;29;20111;-77
2022/10/29 00:33:37;;;;;;;12.65;5.68;;;;;;;;;;4925306;29;20032;-77
2022/10/29 00:36:09;;;;;;;10.38;5.00;;;;;;;;;;4928660;29;20082;-77
2022/10/29 00:38:35;;;;;;;10.40;5.22;;;;;;;;;;4929541;29;20031;-77
2022/10/29 00:41:02;;;;;;;10.48;5.05;;;;;;;;;;4932404;29;20420;-77
2022/10/29 00:43:27;;;;;;;10.18;4.93;;;;;;;;;;4921519;29;20035;-77
2022/10/29 00:46:01;;;;;;;11.15;5.65;;;;;;;;;;4913443;29;20542;-77
2022/10/29 00:48:30;;;;;;;10.40;5.32;;;;;;;;;;4930621;29;20490;-77
2022/10/29 00:50:57;;;;;;;13.98;6.00;;;;;;;;;;4916446;29;20440;-77
2022/10/29 00:53:27;;;;;;;12.35;5.65;;;;;;;;;;4927704;29;20555;-77
2022/10/29 00:55:53;;;;;;;10.50;5.32;;;;;;;;;;4915656;29;20086;-77
2022/10/29 00:58:19;;;;;;;10.32;5.20;;;;;;;;;;4931989;29;20043;-77
2022/10/29 01:00:45;;;;;;;11.18;5.20;;;;;;;;;;4913231;29;20091;-77
2022/10/29 01:03:10;;;;;;;12.57;5.40;;;;;;;;;;4926656;29;20031;-77
2022/10/29 01:05:36;;;;;;;13.30;5.55;;;;;;;;;;4908503;29;20027;-77
2022/10/29 01:08:03;;;;;;;11.63;5.60;;;;;;;;;;4909309;29;20118;-77
2022/10/29 01:10:39;;;;;;;12.32;6.05;;;;;;;;;;4928078;29;20034;-77
2022/10/29 01:13:49;;;;;;;9.82;5.32;;;;;;;;;;4919865;29;20032;-77
2022/10/29 01:16:26;;;;;;;9.10;5.32;;;;;;;;;;4909890;29;20040;-77
2022/10/29 01:19:12;;;;;;;12.25;5.43;;;;;;;;;;4928707;29;20503;-77
2022/10/29 01:21:45;;;;;;;10.38;5.13;;;;;;;;;;4930973;29;20086;-77
2022/10/29 01:24:28;;;;;;;8.98;5.40;;;;;;;;;;4924091;29;20460;-77
2022/10/29 01:27:20;;;;;;;14.57;5.28;;;;;;;;;;4925669;29;20051;-77
2022/10/29 01:30:04;;;;;;;12.15;5.80;;;;;;;;;;4908488;29;20110;-77
2022/10/29 01:32:48;;;;;;;10.95;5.55;;;;;;;;;;4928410;29;20027;-77
2022/10/29 01:35:26;;;;;;;13.15;5.57;;;;;;;;;;4924438;29;20020;-77
2022/10/29 01:38:11;;;;;;;11.38;5.35;;;;;;;;;;4909401;29;20027;-77
2022/10/29 01:40:56;;;;;;;9.32;5.18;;;;;;;;;;4927735;29;20648;-77
2022/10/29 01:43:42;;;;;;;15.00;5.80;;;;;;;;;;4926364;29;20555;-77
2022/10/29 01:46:31;;;;;;;11.48;5.20;;;;;;;;;;4905506;29;20036;-76
2022/10/29 01:49:02;;;;;;;10.52;5.35;;;;;;;;;;4924300;29;20130;-77
2022/10/29 01:51:31;;;;;;;12.45;5.78;;;;;;;;;;4922585;29;20059;-77
2022/10/29 01:53:58;;;;;;;9.20;5.15;;;;;;;;;;4925054;29;20050;-77
2022/10/29 01:56:24;;;;;;;13.77;6.55;;;;;;;;;;4912407;29;20062;-77
2022/10/29 01:58:53;;;;;;;11.52;5.28;;;;;;;;;;4922978;29;20593;-77
2022/10/29 02:01:29;;;;;;;12.63;5.70;;;;;;;;;;4922790;29;20079;-77
2022/10/29 02:04:04;;;;;;;13.85;6.10;;;;;;;;;;4923475;29;20069;-77
2022/10/29 02:06:57;;;;;;;10.95;5.82;;;;;;;;;;4925781;29;20114;-77
2022/10/29 02:09:32;;;;;;;12.40;6.68;;;;;;;;;;4925598;29;20031;-77
2022/10/29 02:12:21;;;;;;;15.23;6.68;;;;;;;;;;4921314;29;20028;-77
2022/10/29 02:14:57;;;;;;;12.65;6.93;;;;;;;;;;4920962;29;20047;-77
2022/10/29 02:17:23;;;;;;;12.88;5.95;;;;;;;;;;4922407;29;20035;-77
2022/10/29 02:19:49;;;;;;;11.07;6.50;;;;;;;;;;4927937;29;20500;-77
2022/10/29 02:22:14;;;;;;;13.27;7.20;;;;;;;;;;4921073;29;20074;-77
2022/10/29 02:24:39;;;;;;;12.50;6.32;;;;;;;;;;4924867;29;20106;-77
2022/10/29 02:27:05;;;;;;;12.05;6.20;;;;;;;;;;4925275;29;20048;-77
2022/10/29 02:29:30;;;;;;;11.90;6.57;;;;;;;;;;4926116;29;20039;-77
2022/10/29 02:31:55;;;;;;;14.35;6.53;;;;;;;;;;4922526;29;20038;-77
2022/10/29 02:34:21;;;;;;;10.98;5.90;;;;;;;;;;4910941;29;20032;-77
2022/10/29 02:36:46;;;;;;;11.68;6.55;;;;;;;;;;4912974;29;20035;-77
2022/10/29 02:39:11;;;;;;;13.18;6.75;;;;;;;;;;4929320;29;20479;-77
2022/10/29 02:41:37;;;;;;;13.55;6.40;;;;;;;;;;4931184;29;20039;-77
2022/10/29 02:44:02;;;;;;;12.93;6.80;;;;;;;;;;4930266;29;20388;-77
2022/10/29 02:46:29;;;;;;;14.23;6.50;;;;;;;;;;4933906;29;20050;-77
2022/10/29 02:48:54;;;;;;;10.30;6.70;;;;;;;;;;4931695;29;20036;-77
2022/10/29 02:51:19;;;;;;;11.85;6.68;;;;;;;;;;4933150;29;20031;-77
2022/10/29 02:53:45;;;;;;;11.80;6.43;;;;;;;;;;4932076;29;20024;-77
2022/10/29 02:56:10;;;;;;;10.18;6.10;;;;;;;;;;4917792;29;20028;-77
2022/10/29 02:58:37;;;;;;;12.23;6.32;;;;;;;;;;4932480;29;20031;-77
2022/10/29 03:01:03;;;;;;;11.60;6.55;;;;;;;;;;4914735;29;20366;-77
2022/10/29 03:03:29;;;;;;;11.90;6.32;;;;;;;;;;4929623;29;20032;-77
2022/10/29 03:05:54;;;;;;;12.70;6.55;;;;;;;;;;4929042;29;20072;-77
2022/10/29 03:08:20;;;;;;;13.15;6.85;;;;;;;;;;4928754;29;20388;-77
2022/10/29 03:10:45;;;;;;;10.93;6.50;;;;;;;;;;4932210;29;20071;-77
2022/10/29 03:13:11;;;;;;;12.15;6.38;;;;;;;;;;4931805;29;20385;-77
2022/10/29 03:15:37;;;;;;;11.63;6.78;;;;;;;;;;4930544;29;20027;-77
2022/10/29 03:18:03;;;;;;;10.90;6.30;;;;;;;;;;4931881;29;20032;-77
2022/10/29 03:20:29;;;;;;;13.20;6.90;;;;;;;;;;4918102;29;20531;-77
2022/10/29 03:22:55;;;;;;;13.05;6.97;;;;;;;;;;4930002;29;20445;-77
2022/10/29 03:25:20;;;;;;;14.02;6.72;;;;;;;;;;4925705;29;20515;-77
2022/10/29 03:27:47;;;;;;;10.93;6.97;;;;;;;;;;4932403;29;20067;-77
2022/10/29 03:30:14;;;;;;;14.68;6.50;;;;;;;;;;4913607;29;20029;-77
2022/10/29 03:32:41;;;;;;;12.73;6.55;;;;;;;;;;4927269;29;20035;-77
2022/10/29 03:35:08;;;;;;;12.60;6.70;;;;;;;;;;4929578;29;20047;-77
2022/10/29 03:37:33;;;;;;;14.23;6.75;;;;;;;;;;4932499;29;20543;-77
2022/10/29 03:39:58;;;;;;;12.15;6.65;;;;;;;;;;4928770;29;20154;-77
2022/10/29 03:42:24;;;;;;;11.25;6.43;;;;;;;;;;4928549;29;20476;-77
2022/10/29 03:44:49;;;;;;;12.18;6.40;;;;;;;;;;4927341;29;20114;-77
2022/10/29 03:47:15;;;;;;;13.27;6.97;;;;;;;;;;4931441;29;20035;-77
2022/10/29 03:49:40;;;;;;;13.07;6.93;;;;;;;;;;4929116;29;20031;-77
2022/10/29 03:52:05;;;;;;;12.30;6.95;;;;;;;;;;4922076;29;20040;-77
2022/10/29 03:54:31;;;;;;;11.77;7.15;;;;;;;;;;4930882;29;20400;-77
2022/10/29 03:56:56;;;;;;;9.48;6.25;;;;;;;;;;4931283;29;20464;-77
2022/10/29 03:59:21;;;;;;;13.20;6.90;;;;;;;;;;4926195;29;20473;-77
2022/10/29 04:01:47;;;;;;;15.07;6.97;;;;;;;;;;4914823;29;20040;-77
2022/10/29 04:04:12;;;;;;;12.40;7.03;;;;;;;;;;4916944;29;20027;-77
2022/10/29 04:06:37;;;;;;;16.67;7.10;;;;;;;;;;4933155;29;20038;-77
2022/10/29 04:09:03;;;;;;;12.95;6.55;;;;;;;;;;4930686;29;20027;-77
2022/10/29 04:11:28;;;;;;;14.07;6.70;;;;;;;;;;4928810;29;20051;-77
2022/10/29 04:13:53;;;;;;;14.40;6.60;;;;;;;;;;4930815;29;20393;-77
2022/10/29 04:16:19;;;;;;;12.80;6.93;;;;;;;;;;4928509;29;20059;-77
2022/10/29 04:18:48;;;;;;;12.55;6.88;;;;;;;;;;4932524;29;20051;-77
2022/10/29 04:21:14;;;;;;;14.30;6.55;;;;;;;;;;4930322;29;20034;-77
2022/10/29 04:23:39;;;;;;;10.20;6.72;;;;;;;;;;4930563;29;20031;-77
2022/10/29 04:26:05;;;;;;;12.45;6.78;;;;;;;;;;4914021;29;20067;-77
2022/10/29 04:28:30;;;;;;;12.68;6.50;;;;;;;;;;4927277;29;20028;-77
2022/10/29 04:30:56;;;;;;;11.85;6.40;;;;;;;;;;4928698;29;20070;-77
2022/10/29 04:33:21;;;;;;;10.48;6.57;;;;;;;;;;4923188;29;20028;-77
2022/10/29 04:35:53;;;;;;;12.48;6.10;;;;;;;;;;4928501;29;20023;-77
2022/10/29 04:38:19;;;;;;;11.93;6.97;;;;;;;;;;4925604;29;20031;-77
2022/10/29 04:40:45;;;;;;;14.48;7.18;;;;;;;;;;4910100;29;20032;-77
2022/10/29 04:43:10;;;;;;;12.77;7.40;;;;;;;;;;4930135;29;20028;-76
2022/10/29 04:45:35;;;;;;;13.77;7.10;;;;;;;;;;4927894;29;20024;-77
2022/10/29 04:48:02;;;;;;;11.35;6.75;;;;;;;;;;4928311;29;20094;-77
2022/10/29 04:50:28;;;;;;;12.50;6.97;;;;;;;;;;4932714;29;20027;-77
2022/10/29 04:53:02;;;;;;;13.30;6.35;;;;;;;;;;4917333;29;20063;-77
2022/10/29 04:55:27;;;;;;;10.75;7.13;;;;;;;;;;4922774;29;20523;-77
2022/10/29 04:57:53;;;;;;;11.65;7.18;;;;;;;;;;4905800;29;20027;-77
2022/10/29 05:00:19;;;;;;;13.38;7.68;;;;;;;;;;4926664;29;20962;-77
2022/10/29 05:02:51;;;;;;;10.32;6.53;;;;;;;;;;4928235;29;20043;-77
2022/10/29 05:05:18;;;;;;;14.20;6.68;;;;;;;;;;4932500;29;20042;-77
2022/10/29 05:07:44;;;;;;;10.98;6.30;;;;;;;;;;4926481;29;20047;-77
2022/10/29 05:10:10;;;;;;;11.25;6.78;;;;;;;;;;4927860;29;20035;-77
2022/10/29 05:12:35;;;;;;;13.02;6.28;;;;;;;;;;4908335;29;20111;-77
2022/10/29 05:15:00;;;;;;;12.70;7.30;;;;;;;;;;4928550;29;20055;-77
2022/10/29 05:17:26;;;;;;;15.82;8.05;;;;;;;;;;4913766;29;20020;-77
2022/10/29 05:19:51;;;;;;;12.27;7.18;;;;;;;;;;4928404;29;20040;-77
2022/10/29 05:22:17;;;;;;;12.38;8.20;;;;;;;;;;4930792;29;20035;-77
2022/10/29 05:24:42;;;;;;;16.80;7.70;;;;;;;;;;4929479;29;20039;-77
2022/10/29 05:27:07;;;;;;;14.55;7.32;;;;;;;;;;4909894;29;20039;-77
2022/10/29 05:29:33;;;;;;;11.38;7.25;;;;;;;;;;4924485;29;20492;-77
2022/10/29 05:31:58;;;;;;;13.73;8.32;;;;;;;;;;4926627;29;20035;-76
2022/10/29 05:34:24;;;;;;;12.27;7.25;;;;;;;;;;4930670;29;20459;-77
2022/10/29 05:36:49;;;;;;;14.18;7.13;;;;;;;;;;4914726;29;20031;-77
2022/10/29 05:39:15;;;;;;;12.30;7.20;;;;;;;;;;4925390;29;20031;-77
2022/10/29 05:41:40;;;;;;;11.60;7.82;;;;;;;;;;4914704;29;20119;-77
2022/10/29 05:44:06;;;;;;;13.23;7.55;;;;;;;;;;4912153;29;20028;-77
2022/10/29 05:46:31;;;;;;;15.50;7.88;;;;;;;;;;4925059;29;20051;-77
2022/10/29 05:48:56;;;;;;;13.27;8.00;;;;;;;;;;4914369;29;20153;-77
2022/10/29 05:51:22;;;;;;;13.20;8.13;;;;;;;;;;4928736;29;20035;-77
2022/10/29 05:53:47;;;;;;;13.10;7.28;;;;;;;;;;4929848;29;20122;-77
2022/10/29 05:56:13;;;;;;;14.85;8.00;;;;;;;;;;4911722;29;20019;-77
2022/10/29 05:58:38;;;;;;;14.95;7.95;;;;;;;;;;4913084;29;20484;-77
2022/10/29 06:01:08;;;;;;;14.75;7.45;;;;;;;;;;4926370;29;20067;-77
2022/10/29 06:03:34;;;;;;;13.18;7.47;;;;;;;;;;4927400;29;20039;-77
2022/10/29 06:05:59;;;;;;;15.90;8.05;;;;;;;;;;4931103;29;20089;-77
2022/10/29 06:08:25;;;;;;;16.08;8.48;;;;;;;;;;4926980;29;20028;-77
2022/10/29 06:10:50;;;;;;;13.27;7.95;;;;;;;;;;4923368;29;20060;-77
2022/10/29 06:13:18;;;;;;;15.00;8.20;;;;;;;;;;4918549;29;20120;-77
2022/10/29 06:15:45;;;;;;;13.63;7.95;;;;;;;;;;4922149;29;20425;-77
2022/10/29 06:18:10;;;;;;;14.48;7.50;;;;;;;;;;4922526;29;20028;-77
2022/10/29 06:20:37;;;;;;;14.13;8.88;;;;;;;;;;4907066;29;20162;-77
2022/10/29 06:23:02;;;;;;;16.42;9.02;;;;;;;;;;4905654;29;22065;-77
2022/10/29 06:25:28;;;;;;;16.52;9.38;;;;;;;;;;4922871;29;20611;-77
2022/10/29 06:28:04;;;;;;;18.33;8.73;;;;;;;;;;4926642;29;20039;-77
2022/10/29 06:30:30;;;;;;;13.18;8.55;;;;;;;;;;4927523;29;20106;-77
2022/10/29 06:32:56;;;;;;;14.93;7.93;;;;;;;;;;4913298;29;20035;-77
2022/10/29 06:35:22;;;;;;;16.95;8.68;;;;;;;;;;4929542;29;20027;-76
2022/10/29 06:37:47;;;;;;;14.43;8.38;;;;;;;;;;4908697;29;20107;-77
2022/10/29 06:40:13;;;;;;;18.42;8.55;;;;;;;;;;4906511;29;20035;-77
2022/10/29 06:42:38;;;;;;;15.93;8.70;;;;;;;;;;4921944;29;20031;-77
2022/10/29 06:45:04;;;;;;;17.67;8.45;;;;;;;;;;4906583;29;20028;-77
2022/10/29 06:47:29;;;;;;;15.15;7.78;;;;;;;;;;4920293;29;20027;-77
2022/10/29 06:49:54;;;;;;;15.00;8.52;;;;;;;;;;4906016;29;20035;-77
2022/10/29 06:52:20;;;;;;;11.82;7.55;;;;;;;;;;4923679;29;20123;-77
2022/10/29 06:54:45;;;;;;;14.80;8.02;;;;;;;;;;4914500;29;20034;-77
2022/10/29 06:57:10;;;;;;;13.73;8.55;;;;;;;;;;4922183;29;20031;-77
2022/10/29 06:59:36;;;;;;;14.00;8.07;;;;;;;;;;4909088;29;20038;-77
2022/10/29 07:02:01;;;;;;;13.55;8.13;;;;;;;;;;4927162;29;20027;-77
2022/10/29 07:04:26;;;;;;;14.30;8.15;;;;;;;;;;4920728;29;20415;-77
2022/10/29 07:06:52;;;;;;;14.38;7.90;;;;;;;;;;4919767;29;20492;-77
2022/10/29 07:09:17;;;;;;;14.05;9.13;;;;;;;;;;4914140;29;20030;-77
2022/10/29 07:11:42;;;;;;;13.90;7.93;;;;;;;;;;4929410;29;20086;-77
2022/10/29 07:14:08;;;;;;;13.38;8.52;;;;;;;;;;4929094;29;20059;-77
2022/10/29 07:16:34;;;;;;;19.00;9.18;;;;;;;;;;4929404;29;20031;-77
2022/10/29 07:19:00;;;;;;;12.70;7.72;;;;;;;;;;4910746;29;20063;-77
2022/10/29 07:21:26;;;;;;;17.42;8.77;;;;;;;;;;4928200;29;20035;-77
2022/10/29 07:23:51;;;;;;;13.43;8.55;;;;;;;;;;4920374;29;20019;-77
2022/10/29 07:26:17;;;;;;;16.75;8.80;;;;;;;;;;4931492;29;20396;-77
2022/10/29 07:28:42;;;;;;;15.25;8.65;;;;;;;;;;4927377;29;20044;-76
2022/10/29 07:31:07;;;;;;;13.88;7.93;;;;;;;;;;4931199;29;21098;-76
2022/10/29 07:33:33;;;;;;;16.85;8.20;;;;;;;;;;4935567;29;20031;-77
2022/10/29 07:35:58;;;;;;;15.38;8.25;;;;;;;;;;4918607;29;20027;-77
2022/10/29 07:38:25;;;;;;;16.70;8.57;;;;;;;;;;4913798;29;20139;-77
2022/10/29 07:40:51;;;;;;;15.10;8.55;;;;;;;;;;4915574;29;20027;-77
2022/10/29 07:43:18;;;;;;;17.30;8.75;;;;;;;;;;4933704;29;20375;-77
2022/10/29 07:45:45;;;;;;;15.70;8.65;;;;;;;;;;4921012;29;20043;-77
2022/10/29 07:48:10;;;;;;;18.20;8.18;;;;;;;;;;4927282;29;20380;-77
2022/10/29 07:50:37;;;;;;;17.75;8.82;;;;;;;;;;4931663;29;20086;-77
2022/10/29 07:53:04;;;;;;;16.25;9.05;;;;;;;;;;4928199;29;20167;-77
2022/10/29 07:55:30;;;;;;;16.48;8.73;;;;;;;;;;4925260;29;20527;-76
2022/10/29 07:58:00;;;;;;;19.60;9.43;;;;;;;;;;4924922;29;20277;-76
2022/10/29 08:00:36;;;;;;;18.90;9.18;;;;;;;;;;4929970;29;20149;-77
2022/10/29 08:03:01;;;;;;;17.55;9.32;;;;;;;;;;4931557;29;20377;-76
2022/10/29 08:05:28;;;;;;;17.38;9.07;;;;;;;;;;4932344;29;20055;-76
2022/10/29 08:07:54;;;;;;;18.55;9.43;;;;;;;;;;4929396;29;20042;-77
2022/10/29 08:10:20;;;;;;;15.10;8.57;;;;;;;;;;4916843;29;20024;-76
2022/10/29 08:12:49;;;;;;;18.23;9.20;;;;;;;;;;4930676;29;20034;-77
2022/10/29 08:15:15;;;;;;;24.95;9.20;;;;;;;;;;4928359;29;20561;-77
2022/10/29 08:17:40;;;;;;;14.75;9.30;;;;;;;;;;4926863;29;20212;-77
2022/10/29 08:20:06;;;;;;;18.48;9.88;;;;;;;;;;4925216;29;20126;-77
2022/10/29 08:22:32;;;;;;;17.23;10.02;;;;;;;;;;4912351;29;20488;-77
2022/10/29 08:24:57;;;;;;;16.83;9.30;;;;;;;;;;4926506;29;20036;-76
2022/10/29 08:27:22;;;;;;;15.52;9.02;;;;;;;;;;4924914;29;20043;-76
2022/10/29 08:29:48;;;;;;;17.90;8.77;;;;;;;;;;4924066;29;20032;-75
2022/10/29 08:32:13;;;;;;;16.60;8.63;;;;;;;;;;4920635;29;20031;-75
2022/10/29 08:34:38;;;;;;;15.35;8.82;;;;;;;;;;4906864;29;20024;-75
2022/10/29 08:37:04;;;;;;;15.93;9.05;;;;;;;;;;4928087;29;20024;-76
2022/10/29 08:39:29;;;;;;;16.17;8.45;;;;;;;;;;4922242;29;20075;-76
2022/10/29 08:42:13;;;;;;;18.50;8.52;;;;;;;;;;4923917;29;20047;-76
2022/10/29 08:44:56;;;;;;;16.08;8.65;;;;;;;;;;4918693;29;20697;-75
2022/10/29 08:47:22;;;;;;;15.95;9.52;;;;;;;;;;4923915;29;20148;-76
2022/10/29 08:50:18;;;;;;;16.02;8.70;;;;;;;;;;4926063;29;20130;-76
2022/10/29 08:52:45;;;;;;;17.45;8.90;;;;;;;;;;4920858;29;20555;-76
2022/10/29 08:55:19;;;;;;;16.95;8.80;;;;;;;;;;4925902;29;20032;-75
2022/10/29 08:57:55;;;;;;;15.75;8.27;;;;;;;;;;4927427;29;20034;-76
2022/10/29 09:00:29;;;;;;;11.90;8.07;;;;;;;;;;4910564;29;20038;-75
2022/10/29 09:02:56;;;;;;;13.25;8.88;;;;;;;;;;4910403;29;20031;-76
2022/10/29 09:05:29;;;;;;;16.38;8.20;;;;;;;;;;4921965;29;21277;-76
2022/10/29 09:08:20;;;;;;;15.38;8.30;;;;;;;;;;4925838;29;20030;-75
2022/10/29 09:10:57;;;;;;;16.38;8.20;;;;;;;;;;4926609;29;20024;-76
2022/10/29 09:13:41;;;;;;;16.15;8.10;;;;;;;;;;4929628;29;20031;-76
2022/10/29 09:16:36;;;;;;;13.50;8.65;;;;;;;;;;4917927;29;20074;-75
2022/10/29 09:19:12;;;;;;;16.33;8.82;;;;;;;;;;4931472;29;20094;-75
2022/10/29 09:22:07;;;;;;;14.90;8.93;;;;;;;;;;4930415;29;20369;-76
2022/10/29 09:24:38;;;;;;;14.35;8.60;;;;;;;;;;4907578;29;20066;-76
2022/10/29 09:27:22;;;;;;;20.60;9.05;;;;;;;;;;4923544;29;20530;-76
2022/10/29 09:30:14;;;;;;;15.25;8.68;;;;;;;;;;4926598;29;20040;-76
2022/10/29 09:33:06;;;;;;;17.00;8.40;;;;;;;;;;4925504;29;20031;-75
2022/10/29 09:35:46;;;;;;;16.30;8.45;;;;;;;;;;4929660;29;20605;-76
2022/10/29 09:38:17;;;;;;;14.25;8.35;;;;;;;;;;4911545;29;20567;-76
2022/10/29 09:40:43;;;;;;;12.32;7.90;;;;;;;;;;4931660;29;20492;-76
2022/10/29 09:43:18;;;;;;;17.42;9.15;;;;;;;;;;4930730;29;20040;-76
2022/10/29 09:45:57;;;;;;;13.07;7.35;;;;;;;;;;4929360;29;20032;-75
2022/10/29 09:48:29;;;;;;;18.88;8.50;;;;;;;;;;4914661;29;20489;-75
2022/10/29 09:51:12;;;;;;;15.02;7.82;;;;;;;;;;4928844;29;20083;-76
2022/10/29 09:53:38;;;;;;;;;;;;;;;;;;4928425;29;20074;-75
2022/10/29 09:56:07;;;;;;;14.45;6.72;;;;;;;;;;4927800;29;19961;-76
2022/10/29 09:58:40;;;;;;;13.07;7.00;;;;;;;;;;4929104;29;20027;-76
2022/10/29 10:01:06;;;;;;;12.35;7.10;;;;;;;;;;4911013;29;20449;-76
2022/10/29 10:03:44;;;;;;;13.23;7.28;;;;;;;;;;4930260;29;20039;-75
2022/10/29 10:06:13;;;;;;;13.77;7.20;;;;;;;;;;4909375;29;20484;-76
2022/10/29 10:09:03;;;;;;;12.07;6.82;;;;;;;;;;4925198;29;21683;-75
2022/10/29 10:11:48;;;;;;;16.13;6.90;;;;;;;;;;4897017;29;20107;-75
2022/10/29 10:14:18;;;;;;;13.48;6.93;;;;;;;;;;4926021;29;20481;-75
2022/10/29 10:16:44;;;;;;;12.57;7.18;;;;;;;;;;4909488;29;20540;-76
2022/10/29 10:19:24;;;;;;;16.25;8.65;;;;;;;;;;4922545;29;20036;-76
2022/10/29 10:22:02;;;;;;;14.82;8.05;;;;;;;;;;4921800;29;20042;-76
2022/10/29 10:24:35;;;;;;;16.30;8.82;;;;;;;;;;4917699;29;20082;-76
2022/10/29 10:27:28;;;;;;;13.27;8.50;;;;;;;;;;4923272;29;20039;-76
2022/10/29 10:30:02;;;;;;;13.27;8.90;;;;;;;;;;4909416;29;20086;-76
2022/10/29 10:32:27;;;;;;;16.42;8.77;;;;;;;;;;4923780;29;20032;-76
2022/10/29 10:34:53;;;;;;;14.57;8.43;;;;;;;;;;4919054;29;20544;-78
2022/10/29 10:37:19;;;;;;;13.80;8.75;;;;;;;;;;4906581;29;20477;-77
2022/10/29 10:39:48;;;;;;;14.00;8.75;;;;;;;;;;4919312;29;20035;-76
2022/10/29 10:42:16;;;;;;;16.27;7.82;;;;;;;;;;4920072;29;20031;-76
2022/10/29 10:44:47;;;;;;;13.30;7.90;;;;;;;;;;4927661;29;20115;-76
2022/10/29 10:47:17;;;;;;;14.77;7.47;;;;;;;;;;4907642;29;20039;-76
2022/10/29 10:49:42;;;;;;;12.00;7.28;;;;;;;;;;4925324;29;20031;-76
2022/10/29 10:52:21;;;;;;;14.60;7.40;;;;;;;;;;4923305;29;20079;-76
2022/10/29 10:54:59;;;;;;;14.55;7.35;;;;;;;;;;4921537;29;20500;-76
2022/10/29 10:57:31;;;;;;;15.48;7.78;;;;;;;;;;4926755;29;20115;-76
2022/10/29 11:00:05;;;;;;;12.82;7.13;;;;;;;;;;4935806;29;20031;-76
2022/10/29 11:03:02;;;;;;;11.25;6.72;;;;;;;;;;4933608;29;20079;-76
2022/10/29 11:05:38;;;;;;;12.57;7.50;;;;;;;;;;4916348;29;20035;-76
2022/10/29 11:08:29;;;;;;;14.18;7.10;;;;;;;;;;4919893;29;20392;-76
2022/10/29 11:10:59;;;;;;;17.63;7.72;;;;;;;;;;4919386;29;20414;-76
2022/10/29 11:13:28;;;;;;;15.55;7.68;;;;;;;;;;4916854;29;20114;-77
2022/10/29 11:16:15;;;;;;;13.43;6.90;;;;;;;;;;4917469;29;20677;-76
2022/10/29 11:18:59;;;;;;;13.40;7.13;;;;;;;;;;4934700;29;20500;-76
2022/10/29 11:21:36;;;;;;;18.38;7.25;;;;;;;;;;4919399;29;20116;-76
2022/10/29 11:24:11;;;;;;;11.95;7.07;;;;;;;;;;4931162;29;20024;-76
2022/10/29 11:26:41;;;;;;;14.68;7.05;;;;;;;;;;4916700;29;20127;-76
2022/10/29 11:29:44;;;;;;;13.75;6.22;;;;;;;;;;4934581;29;20063;-76
2022/10/29 11:32:28;;;;;;;11.07;6.18;;;;;;;;;;4936034;29;20031;-76
2022/10/29 11:35:03;;;;;;;13.52;6.28;;;;;;;;;;4913098;29;20480;-76
2022/10/29 11:37:43;;;;;;;13.57;5.97;;;;;;;;;;4899908;29;20027;-77
2022/10/29 11:40:17;;;;;;;13.57;6.10;;;;;;;;;;4919263;29;20046;-77
2022/10/29 11:42:42;;;;;;;13.52;5.47;;;;;;;;;;4911102;29;20098;-77
2022/10/29 11:45:16;;;;;;;12.40;5.65;;;;;;;;;;4910252;29;21162;-76
2022/10/29 11:47:50;;;;;;;16.45;5.78;;;;;;;;;;4927007;29;20032;-76
2022/10/29 11:50:25;;;;;;;11.32;5.60;;;;;;;;;;4921698;29;20493;-76
2022/10/29 11:53:08;;;;;;;12.82;6.88;;;;;;;;;;4927225;29;20063;-76
2022/10/29 11:56:03;;;;;;;12.07;5.47;;;;;;;;;;4922780;29;20564;-75
2022/10/29 11:58:56;;;;;;;14.10;5.53;;;;;;;;;;4928387;29;20508;-75
2022/10/29 12:01:34;;;;;;;;;;;;;;;;;;4927381;29;20381;-76
2022/10/29 12:04:26;;;;;;;11.38;5.32;;;;;;;;;;4908618;29;20387;-76
2022/10/29 12:07:15;;;;;;;11.77;4.78;;;;;;;;;;4930596;29;20472;-76
2022/10/29 12:09:53;;;;;;;11.82;4.95;;;;;;;;;;4926201;29;20484;-76
2022/10/29 12:12:19;;;;;;;13.45;5.90;;;;;;;;;;4932851;29;20212;-76
2022/10/29 12:14:53;;;;;;;11.90;5.90;;;;;;;;;;4909585;29;20057;-76
2022/10/29 12:18:03;;;;;;;11.43;5.60;;;;;;;;;;4909839;29;20031;-76
2022/10/29 12:20:40;;;;;;;12.25;5.22;;;;;;;;;;4906005;29;20052;-76
2022/10/29 12:23:24;;;;;;;12.63;4.85;;;;;;;;;;4933100;29;20062;-76
2022/10/29 12:26:19;;;;;;;11.68;5.13;;;;;;;;;;4923289;29;20051;-76
2022/10/29 12:29:03;;;;;;;13.05;4.85;;;;;;;;;;4911091;29;20031;-76
2022/10/29 12:31:43;;;;;;;13.20;4.13;;;;;;;;;;4926142;29;20496;-77
2022/10/29 12:34:47;;;;;;;14.57;4.90;;;;;;;;;;4932910;29;20062;-76
2022/10/29 12:38:02;;;;;;;8.43;4.63;;;;;;;;;;4900229;29;20083;-76
2022/10/29 12:40:32;;;;;;;12.80;4.97;;;;;;;;;;4906374;29;20051;-76
2022/10/29 12:43:04;;;;;;;8.80;4.40;;;;;;;;;;4925200;29;20039;-76
2022/10/29 12:45:34;;;;;;;12.17;5.07;;;;;;;;;;4924356;29;20028;-76
2022/10/29 12:48:09;;;;;;;12.95;5.38;;;;;;;;;;4934676;29;20156;-75
2022/10/29 12:50:40;;;;;;;13.05;4.72;;;;;;;;;;4928424;29;20063;-76
2022/10/29 12:53:23;;;;;;;9.02;4.10;;;;;;;;;;4924324;29;20472;-76
2022/10/29 12:55:50;;;;;;;12.05;4.50;;;;;;;;;;4923395;29;20035;-76
2022/10/29 12:58:51;;;;;;;11.32;4.10;;;;;;;;;;4911584;29;20499;-76
2022/10/29 13:01:26;;;;;;;10.65;3.88;;;;;;;;;;4932222;29;20024;-76
2022/10/29 13:03:54;;;;;;;8.25;3.85;;;;;;;;;;4928678;29;20039;-76
2022/10/29 13:06:38;;;;;;;9.57;3.70;;;;;;;;;;4909822;29;20027;-76
2022/10/29 13:09:16;;;;;;;12.85;4.18;;;;;;;;;;4924701;29;20046;-78
2022/10/29 13:12:05;;;;;;;11.23;3.85;;;;;;;;;;4923064;29;20031;-76
2022/10/29 13:14:50;;;;;;;11.40;3.78;;;;;;;;;;4919714;29;20027;-76
2022/10/29 13:17:32;;;;;;;9.65;3.85;;;;;;;;;;4910599;29;20024;-77
2022/10/29 13:20:00;;;;;;;10.68;3.92;;;;;;;;;;4920737;29;20035;-76
2022/10/29 13:22:33;;;;;;;9.35;4.57;;;;;;;;;;4924392;29;20361;-76
2022/10/29 13:25:32;;;;;;;7.68;4.00;;;;;;;;;;4928545;29;20555;-76
2022/10/29 13:28:07;;;;;;;11.60;4.10;;;;;;;;;;4922838;29;20405;-75
2022/10/29 13:30:34;;;;;;;12.02;3.60;;;;;;;;;;4925899;29;20031;-76
2022/10/29 13:32:59;;;;;;;11.23;3.85;;;;;;;;;;4924365;29;20114;-74
2022/10/29 13:35:25;;;;;;;9.65;3.58;;;;;;;;;;4928448;29;20175;-76
2022/10/29 13:37:52;;;;;;;10.05;3.80;;;;;;;;;;4927423;29;20396;-76
2022/10/29 13:40:20;;;;;;;9.95;3.85;;;;;;;;;;4929713;29;20056;-76
2022/10/29 13:42:56;;;;;;;14.57;4.35;;;;;;;;;;4921794;29;20043;-75
2022/10/29 13:45:22;;;;;;;14.23;3.85;;;;;;;;;;4927343;29;20035;-75
2022/10/29 13:47:48;;;;;;;13.93;3.85;;;;;;;;;;4923476;29;20438;-76
2022/10/29 13:50:16;;;;;;;9.45;3.80;;;;;;;;;;4913302;29;20566;-76
2022/10/29 13:52:47;;;;;;;10.85;3.63;;;;;;;;;;4924478;29;20047;-75
2022/10/29 13:55:18;;;;;;;10.23;3.67;;;;;;;;;;4905267;29;20035;-76
2022/10/29 13:58:24;;;;;;;9.88;3.90;;;;;;;;;;4924686;29;20030;-75
2022/10/29 14:00:50;;;;;;;9.90;3.80;;;;;;;;;;4922138;29;20036;-75
2022/10/29 14:03:28;;;;;;;11.07;3.90;;;;;;;;;;4908758;29;20626;-77
2022/10/29 14:06:08;;;;;;;10.32;3.72;;;;;;;;;;4908913;29;20036;-76
2022/10/29 14:08:39;;;;;;;10.05;3.53;;;;;;;;;;4925614;29;20033;-76
2022/10/29 14:11:16;;;;;;;17.20;4.00;;;;;;;;;;4924920;29;20050;-77
2022/10/29 14:13:46;;;;;;;8.05;3.70;;;;;;;;;;4923271;29;20515;-76
2022/10/29 14:16:14;;;;;;;11.48;3.53;;;;;;;;;;4912661;29;20059;-76
2022/10/29 14:18:44;;;;;;;9.18;3.97;;;;;;;;;;4911021;29;20043;-76
2022/10/29 14:21:17;;;;;;;12.43;4.25;;;;;;;;;;4926249;29;20653;-77
2022/10/29 14:24:06;;;;;;;12.55;3.97;;;;;;;;;;4920434;29;20039;-74
2022/10/29 14:26:36;;;;;;;10.43;3.63;;;;;;;;;;4907424;29;20389;-77
2022/10/29 14:29:19;;;;;;;11.27;4.28;;;;;;;;;;4924771;29;20093;-75
2022/10/29 14:31:45;;;;;;;12.90;4.53;;;;;;;;;;4926735;29;20028;-75
2022/10/29 14:34:24;;;;;;;11.57;4.05;;;;;;;;;;4917499;29;20078;-76
2022/10/29 14:36:52;;;;;;;10.20;3.80;;;;;;;;;;4929150;29;20435;-76
2022/10/29 14:39:20;;;;;;;12.35;4.38;;;;;;;;;;4933556;29;20496;-76
2022/10/29 14:41:48;;;;;;;12.57;3.95;;;;;;;;;;4927287;29;20055;-76
2022/10/29 14:44:17;;;;;;;9.60;3.63;;;;;;;;;;4929276;29;20027;-75
2022/10/29 14:46:52;;;;;;;13.38;3.97;;;;;;;;;;4926905;29;20540;-76
2022/10/29 14:49:20;;;;;;;9.55;4.20;;;;;;;;;;4927770;29;20028;-75
2022/10/29 14:52:01;;;;;;;9.57;3.92;;;;;;;;;;4920167;29;20032;-75
2022/10/29 14:54:32;;;;;;;12.30;3.85;;;;;;;;;;4931987;29;20043;-76
2022/10/29 14:57:01;;;;;;;11.75;3.90;;;;;;;;;;4932200;29;20046;-75